3LF

Litchfield Municipal Airport

Litchfield, Illinois, USA
METAR K3LF 222015Z AUTO 33015G19KT 10SM SCT026 BKN042 OVC070 25/19 A2989 RMK AO2 T02460194
Observed Flight Rules
Jul-22 @ 20:15 UTC (8 minutes ago) Visual Flight Rules
Wind Visibility Clouds
330° at 15 knots
 Gusting to 19 knots
10 miles
  • Scattered at 2,600' AGL
  • Broken at 4,200' AGL
  • Overcast at 7,000' AGL
Temperatures Readings
Current 25°C / 77°F
Dewpoint 19°C / 66°F
Humidity 69%
Altimeter 29.89" Hg
Pressure 1012 hPa
Elevation 210
METAR K3LF 222015Z AUTO 33015G19KT 10SM SCT026 BKN042 OVC070 25/19 A2989 RMK AO2 T02460194
Observed Flight Rules
Jul-22 @ 20:15 UTC
(8 minutes ago)
VFR
Wind Visibility
330° at 15 knots
 Gusting to 19 knots
10 miles
Clouds
  • Scattered at 2,600' AGL
  • Broken at 4,200' AGL
  • Overcast at 7,000' AGL
Temperature Dewpoint
25°C / 77°F 19°C / 66°F
Humidity Altimeter Pressure
69% 29.89" Hg 1012 hPa